Terminal Aerodrome Forecast
Issued by NWS Louisville, KY

Home | Current Version | Previous Version | Text Only | Print | Product List | Glossary On
Versions: 1 2 3 4 5 6 7 8 9 10 11 12 13 14 15 16 17 18 19 20 21 22 23 24 25 26
002
FTUS43 KLMK 222331
TAFSDF
TAF
KSDF 222331Z 2300/2406 20012KT P6SM SCT070 BKN250
     FM230800 22012G17KT P6SM VCSH OVC040
     FM231300 25010KT P6SM SCT015 BKN025 PROB30 2313/2316 6SM -RA
      OVC015
     FM231800 29009KT P6SM FEW025 SCT250
     FM240000 33006KT P6SM SKC=

USA.gov is the U.S. government's official web portal to all federal, state and local government web resources and services.